createdAt,value
2022-12-25T00:00:23.409Z,85.51
2022-12-25T00:04:47.561Z,85.41
2022-12-25T00:08:51.168Z,85.53
2022-12-25T00:12:55.329Z,85.42
2022-12-25T00:16:58.940Z,85.23
2022-12-25T00:21:02.895Z,85.33
2022-12-25T00:25:08.084Z,85.37
2022-12-25T00:29:11.714Z,85.18
2022-12-25T00:33:17.299Z,85.22
2022-12-25T00:37:21.370Z,85.23
2022-12-25T00:41:26.030Z,85.11
2022-12-25T00:45:30.200Z,84.85
2022-12-25T00:49:34.348Z,84.86
2022-12-25T00:52:39.831Z,84.74
2022-12-25T00:56:43.266Z,84.82
2022-12-25T01:00:47.866Z,84.73
2022-12-25T01:04:52.422Z,84.68
2022-12-25T01:08:48.790Z,84.62
2022-12-25T01:12:54.458Z,84.66
2022-12-25T01:17:08.265Z,84.63
2022-12-25T01:21:04.915Z,84.61
2022-12-25T01:25:08.557Z,84.52
2022-12-25T01:29:12.141Z,84.50
2022-12-25T01:33:08.723Z,84.60
2022-12-25T01:37:15.637Z,84.54
2022-12-25T01:41:19.237Z,84.57
2022-12-25T01:45:38.376Z,84.46
2022-12-25T01:49:48.389Z,84.44
2022-12-25T01:53:52.407Z,84.59
2022-12-25T01:57:49.889Z,84.57
2022-12-25T02:01:53.641Z,84.47
2022-12-25T02:06:09.182Z,84.80
2022-12-25T02:10:11.280Z,84.53
2022-12-25T02:13:50.011Z,84.54
2022-12-25T02:17:46.913Z,84.53
2022-12-25T02:21:52.088Z,84.61
2022-12-25T02:26:01.347Z,84.53
2022-12-25T02:30:13.766Z,84.49
2022-12-25T02:34:23.971Z,84.57
2022-12-25T02:38:30.837Z,84.59
2022-12-25T02:42:40.659Z,84.64
2022-12-25T02:46:40.467Z,84.39
2022-12-25T02:50:43.430Z,84.27
2022-12-25T02:54:46.740Z,84.46
2022-12-25T02:58:40.375Z,84.60
2022-12-25T03:02:26.037Z,84.32
2022-12-25T03:06:28.419Z,84.38
2022-12-25T03:10:36.248Z,84.25
2022-12-25T03:14:45.718Z,84.36
2022-12-25T03:18:55.259Z,84.27
2022-12-25T03:23:06.404Z,84.17
2022-12-25T03:27:16.889Z,84.19
2022-12-25T03:31:08.375Z,84.25
2022-12-25T03:35:24.194Z,84.32
2022-12-25T03:39:36.751Z,84.30
2022-12-25T03:43:38.609Z,84.28
2022-12-25T03:47:57.755Z,84.38
2022-12-25T03:52:00.207Z,84.37
2022-12-25T03:56:13.745Z,84.35
2022-12-25T04:00:12.537Z,84.26
2022-12-25T04:04:14.488Z,84.61
2022-12-25T04:08:17.314Z,84.59
2022-12-25T04:12:19.952Z,84.48
2022-12-25T04:16:22.929Z,84.31
2022-12-25T04:20:35.822Z,84.44
2022-12-25T04:24:13.370Z,84.51
2022-12-25T04:28:04.067Z,84.44
2022-12-25T04:31:39.374Z,84.30
2022-12-25T04:35:41.786Z,84.29
2022-12-25T04:39:47.023Z,84.45
2022-12-25T04:43:39.325Z,84.34
2022-12-25T04:47:42.919Z,84.17
2022-12-25T04:51:52.699Z,84.13
2022-12-25T04:55:50.969Z,84.21
2022-12-25T04:59:53.375Z,84.21
2022-12-25T05:03:57.184Z,84.22
2022-12-25T05:07:58.306Z,84.26
2022-12-25T05:12:06.361Z,84.26
2022-12-25T05:16:10.834Z,84.16
2022-12-25T05:20:14.490Z,84.13
2022-12-25T05:24:08.760Z,83.99
2022-12-25T05:28:12.317Z,84.16
2022-12-25T05:32:16.134Z,84.17
2022-12-25T05:36:05.017Z,84.08
2022-12-25T05:40:08.131Z,84.07
2022-12-25T05:43:24.187Z,84.06
2022-12-25T05:47:27.763Z,84.08
2022-12-25T05:50:51.650Z,84.15
2022-12-25T05:54:54.423Z,84.13
2022-12-25T05:58:58.374Z,84.17
2022-12-25T06:03:02.149Z,84.17
2022-12-25T06:07:04.721Z,84.24
2022-12-25T06:11:04.945Z,84.19
2022-12-25T06:15:08.991Z,84.01
2022-12-25T06:19:14.211Z,84.00
2022-12-25T06:23:03.683Z,84.00
2022-12-25T06:26:57.677Z,84.06
2022-12-25T06:30:07.199Z,84.02
2022-12-25T06:33:20.645Z,83.95
2022-12-25T06:37:24.342Z,83.97
2022-12-25T06:41:22.896Z,84.02
2022-12-25T06:45:26.732Z,84.13
2022-12-25T06:49:31.362Z,83.98
2022-12-25T06:53:29.366Z,83.89
2022-12-25T06:57:36.253Z,84.15
2022-12-25T07:01:39.986Z,83.95
2022-12-25T07:05:42.913Z,83.91
2022-12-25T07:09:30.814Z,83.99
2022-12-25T07:13:33.169Z,83.94
2022-12-25T07:17:25.597Z,84.02
2022-12-25T07:21:36.554Z,83.79
2022-12-25T07:25:40.305Z,83.83
2022-12-25T07:29:44.515Z,83.72
2022-12-25T07:33:18.036Z,83.73
2022-12-25T07:36:54.585Z,83.74
2022-12-25T07:40:59.332Z,83.64
2022-12-25T07:45:02.943Z,83.61
2022-12-25T07:48:52.269Z,83.54
2022-12-25T07:52:56.053Z,83.55
2022-12-25T07:56:48.883Z,83.33
2022-12-25T08:00:52.799Z,83.27
2022-12-25T08:04:59.780Z,83.33
2022-12-25T08:09:02.475Z,83.37
2022-12-25T08:13:12.434Z,83.29
2022-12-25T08:17:23.893Z,83.25
2022-12-25T08:21:27.610Z,83.11
2022-12-25T08:25:31.226Z,83.22
2022-12-25T08:29:34.948Z,83.35
2022-12-25T08:33:56.076Z,83.00
2022-12-25T08:37:43.681Z,83.19
2022-12-25T08:41:51.524Z,82.94
2022-12-25T08:45:45.205Z,83.03
2022-12-25T08:49:42.200Z,82.90
2022-12-25T08:53:45.676Z,82.92
2022-12-25T08:57:27.746Z,83.07
2022-12-25T09:01:31.619Z,82.87
2022-12-25T09:05:23.935Z,82.85
2022-12-25T09:09:06.795Z,83.08
2022-12-25T09:13:10.404Z,83.08
2022-12-25T09:17:01.266Z,82.98
2022-12-25T09:20:37.716Z,82.88
2022-12-25T09:24:40.735Z,83.02
2022-12-25T09:28:35.362Z,82.94
2022-12-25T09:32:29.158Z,83.01
2022-12-25T09:36:26.488Z,82.86
2022-12-25T09:40:17.031Z,82.83
2022-12-25T09:43:58.710Z,82.88
2022-12-25T09:48:01.333Z,82.85
2022-12-25T09:51:50.296Z,82.98
2022-12-25T09:55:41.672Z,82.94
2022-12-25T09:59:45.270Z,82.95
2022-12-25T10:03:52.226Z,82.99
2022-12-25T10:07:57.332Z,83.00
2022-12-25T10:12:05.716Z,82.96
2022-12-25T10:16:14.937Z,83.11
2022-12-25T10:20:36.910Z,83.02
2022-12-25T10:24:41.324Z,82.96
2022-12-25T10:28:36.976Z,83.01
2022-12-25T10:32:33.186Z,83.06
2022-12-25T10:35:45.724Z,83.01
2022-12-25T10:39:46.375Z,82.94
2022-12-25T10:43:00.240Z,82.88
2022-12-25T10:47:00.724Z,82.77
2022-12-25T10:51:07.780Z,82.86
2022-12-25T10:55:29.352Z,82.71
2022-12-25T10:59:33.383Z,82.97
2022-12-25T11:03:37.526Z,82.81
2022-12-25T11:07:53.704Z,82.86
2022-12-25T11:11:57.797Z,82.74
2022-12-25T11:16:04.297Z,82.78
2022-12-25T11:20:20.142Z,82.83
2022-12-25T11:24:03.262Z,82.53
2022-12-25T11:28:07.395Z,82.51
2022-12-25T11:32:11.135Z,82.09
2022-12-25T11:36:11.041Z,82.15
2022-12-25T11:40:23.839Z,82.09
2022-12-25T11:44:28.095Z,81.88
2022-12-25T11:48:32.138Z,81.85
2022-12-25T11:52:21.973Z,81.62
2022-12-25T11:55:49.610Z,81.69
2022-12-25T11:59:53.213Z,81.59
2022-12-25T12:03:35.844Z,81.41
2022-12-25T12:08:04.916Z,81.26
2022-12-25T12:11:52.840Z,81.03
2022-12-25T12:16:06.070Z,81.13
2022-12-25T12:20:07.651Z,81.02
2022-12-25T12:23:39.946Z,81.18
2022-12-25T12:27:41.097Z,81.28
2022-12-25T12:31:35.436Z,81.20
2022-12-25T12:35:54.551Z,81.15
2022-12-25T12:39:51.618Z,81.35
2022-12-25T12:43:47.109Z,81.52
2022-12-25T12:47:50.686Z,81.43
2022-12-25T12:52:09.976Z,81.47
2022-12-25T12:56:12.894Z,81.47
2022-12-25T13:00:17.232Z,81.66
2022-12-25T13:04:39.574Z,81.65
2022-12-25T13:08:49.287Z,81.65
2022-12-25T13:12:37.689Z,81.79
2022-12-25T13:16:41.832Z,81.78
2022-12-25T13:20:57.191Z,81.77
2022-12-25T13:24:49.460Z,81.87
2022-12-25T13:28:54.731Z,82.19
2022-12-25T13:32:57.895Z,82.11
2022-12-25T13:36:54.607Z,82.13
2022-12-25T13:41:04.096Z,82.19
2022-12-25T13:45:07.715Z,82.15
2022-12-25T13:49:11.349Z,82.15
2022-12-25T13:53:10.770Z,82.22
2022-12-25T13:57:12.142Z,82.46
2022-12-25T14:01:19.026Z,82.47
2022-12-25T14:05:22.705Z,82.44
2022-12-25T14:09:26.724Z,82.36
2022-12-25T14:13:30.409Z,82.45
2022-12-25T14:17:34.109Z,82.53
2022-12-25T14:21:40.524Z,82.55
2022-12-25T14:25:49.320Z,82.48
2022-12-25T14:29:54.521Z,82.68
2022-12-25T14:33:58.711Z,82.74
2022-12-25T14:38:00.040Z,82.78
2022-12-25T14:41:55.541Z,82.67
2022-12-25T14:46:14.031Z,82.97
2022-12-25T14:50:19.161Z,82.61
2022-12-25T14:54:28.621Z,82.84
2022-12-25T14:58:42.549Z,82.84
2022-12-25T15:02:38.962Z,82.88
2022-12-25T15:06:58.164Z,82.96
2022-12-25T15:11:01.189Z,82.92
2022-12-25T15:15:14.363Z,82.98
2022-12-25T15:18:45.649Z,82.98
2022-12-25T15:22:47.693Z,83.03
2022-12-25T15:27:06.658Z,83.10
2022-12-25T15:30:56.849Z,82.99
2022-12-25T15:34:50.287Z,83.04
2022-12-25T15:38:27.975Z,82.77
2022-12-25T15:42:33.191Z,82.99
2022-12-25T15:46:36.703Z,83.00
2022-12-25T15:50:06.111Z,83.02
2022-12-25T15:53:55.772Z,83.01
2022-12-25T15:58:02.194Z,83.09
2022-12-25T16:02:07.477Z,83.00
2022-12-25T16:06:11.121Z,83.00
2022-12-25T16:10:11.488Z,83.05
2022-12-25T16:14:08.034Z,83.03
2022-12-25T16:18:14.746Z,82.92
2022-12-25T16:22:14.790Z,82.99
2022-12-25T16:26:18.394Z,82.82
2022-12-25T16:30:14.585Z,82.76
2022-12-25T16:34:00.466Z,82.70
2022-12-25T16:38:05.805Z,82.54
2022-12-25T16:42:01.491Z,82.34
2022-12-25T16:45:43.419Z,82.23
2022-12-25T16:49:46.986Z,82.43
2022-12-25T16:53:15.014Z,82.22
2022-12-25T16:56:51.926Z,82.21
2022-12-25T17:00:19.632Z,82.20
2022-12-25T17:04:02.202Z,81.98
2022-12-25T17:07:51.287Z,82.07
2022-12-25T17:11:30.460Z,82.04
2022-12-25T17:15:01.795Z,81.95
2022-12-25T17:18:35.023Z,82.06
2022-12-25T17:21:59.815Z,81.99
2022-12-25T17:25:42.021Z,81.75
2022-12-25T17:30:15.419Z,82.01
2022-12-25T17:33:58.689Z,81.92
2022-12-25T17:37:20.563Z,81.86
2022-12-25T17:40:56.952Z,81.76
2022-12-25T17:44:57.738Z,81.90
2022-12-25T17:48:32.439Z,81.98
2022-12-25T17:52:02.904Z,82.00
2022-12-25T17:55:38.255Z,82.05
2022-12-25T17:59:00.587Z,82.13
2022-12-25T18:02:47.152Z,81.97
2022-12-25T18:06:35.846Z,82.17
2022-12-25T18:10:14.965Z,82.08
2022-12-25T18:13:44.817Z,82.13
2022-12-25T18:17:42.453Z,82.18
2022-12-25T18:21:08.036Z,81.99
2022-12-25T18:25:02.506Z,82.23
2022-12-25T18:28:17.515Z,82.08
2022-12-25T18:31:55.813Z,82.23
2022-12-25T18:35:31.129Z,82.02
2022-12-25T18:39:08.875Z,82.05
2022-12-25T18:43:05.468Z,82.02
2022-12-25T18:46:48.626Z,82.22
2022-12-25T18:50:42.121Z,81.99
2022-12-25T18:54:28.629Z,82.31
2022-12-25T18:57:41.014Z,82.26
2022-12-25T19:01:51.262Z,82.29
2022-12-25T19:05:57.854Z,82.30
2022-12-25T19:10:18.334Z,82.55
2022-12-25T19:13:52.469Z,82.54
2022-12-25T19:17:40.179Z,82.48
2022-12-25T19:21:06.489Z,82.36
2022-12-25T19:24:52.859Z,82.52
2022-12-25T19:28:27.885Z,82.52
2022-12-25T19:32:24.176Z,82.70
2022-12-25T19:36:08.828Z,82.50
2022-12-25T19:40:08.047Z,82.66
2022-12-25T19:43:55.060Z,82.54
2022-12-25T19:47:37.612Z,82.56
2022-12-25T19:51:35.973Z,82.69
2022-12-25T19:55:22.657Z,82.83
2022-12-25T19:59:10.333Z,82.70
2022-12-25T20:03:03.405Z,83.03
2022-12-25T20:06:38.906Z,82.68
2022-12-25T20:10:34.641Z,82.92
2022-12-25T20:14:10.557Z,82.87
2022-12-25T20:17:38.582Z,82.76
2022-12-25T20:21:26.928Z,82.81
2022-12-25T20:25:13.912Z,82.91
2022-12-25T20:28:28.522Z,83.08
2022-12-25T20:32:17.717Z,82.78
2022-12-25T20:36:01.209Z,83.02
2022-12-25T20:39:42.347Z,83.02
2022-12-25T20:43:45.880Z,83.00
2022-12-25T20:47:22.988Z,83.06
2022-12-25T20:51:18.003Z,83.10
2022-12-25T20:55:20.792Z,83.12
2022-12-25T20:58:57.220Z,83.10
2022-12-25T21:03:00.982Z,83.23
2022-12-25T21:06:42.883Z,83.17
2022-12-25T21:10:16.021Z,83.36
2022-12-25T21:14:08.355Z,83.28
2022-12-25T21:18:05.406Z,83.39
2022-12-25T21:21:47.114Z,83.37
2022-12-25T21:25:20.926Z,83.42
2022-12-25T21:29:00.900Z,83.30
2022-12-25T21:32:37.969Z,83.47
2022-12-25T21:36:38.298Z,83.55
2022-12-25T21:40:34.741Z,83.44
2022-12-25T21:44:23.713Z,83.50
2022-12-25T21:47:59.960Z,83.62
2022-12-25T21:52:14.809Z,83.37
2022-12-25T21:55:39.628Z,83.63
2022-12-25T21:59:37.027Z,83.56
2022-12-25T22:03:23.871Z,83.59
2022-12-25T22:07:02.752Z,83.60
2022-12-25T22:10:40.909Z,83.68
2022-12-25T22:14:17.420Z,83.62
2022-12-25T22:18:10.970Z,83.61
2022-12-25T22:22:18.070Z,83.77
2022-12-25T22:26:21.221Z,83.61
2022-12-25T22:30:12.536Z,83.77
2022-12-25T22:34:14.119Z,83.54
2022-12-25T22:38:09.016Z,83.55
2022-12-25T22:42:05.146Z,83.68
2022-12-25T22:45:54.406Z,83.65
2022-12-25T22:49:42.889Z,83.86
2022-12-25T22:53:38.851Z,84.00
2022-12-25T22:57:42.464Z,84.01
2022-12-25T23:01:38.761Z,84.03
2022-12-25T23:05:43.670Z,84.06
2022-12-25T23:09:04.012Z,84.12
2022-12-25T23:12:47.954Z,83.94
2022-12-25T23:16:43.994Z,84.10
2022-12-25T23:20:46.594Z,84.02
2022-12-25T23:24:33.135Z,83.92
2022-12-25T23:28:19.411Z,83.83
2022-12-25T23:32:17.665Z,83.83
2022-12-25T23:36:13.614Z,83.82
2022-12-25T23:40:16.934Z,83.77
2022-12-25T23:44:19.165Z,83.86
2022-12-25T23:47:43.088Z,83.84
2022-12-25T23:51:45.343Z,83.79
2022-12-25T23:55:55.093Z,83.83
2022-12-25T23:59:59.824Z,83.99
